sensor_id;sensor_type;location;lat;lon;timestamp;P1;durP1;ratioP1;P2;durP2;ratioP2
22320;SDS011;11328;53.928;18.522;2022-12-20T00:01:41;35.53;;;19.63;;
22320;SDS011;11328;53.928;18.522;2022-12-20T00:04:08;41.05;;;20.08;;
22320;SDS011;11328;53.928;18.522;2022-12-20T00:06:37;34.67;;;18.30;;
22320;SDS011;11328;53.928;18.522;2022-12-20T00:09:05;35.88;;;18.15;;
22320;SDS011;11328;53.928;18.522;2022-12-20T00:11:34;35.75;;;18.67;;
22320;SDS011;11328;53.928;18.522;2022-12-20T00:14:05;32.22;;;17.20;;
22320;SDS011;11328;53.928;18.522;2022-12-20T00:16:34;34.75;;;17.67;;
22320;SDS011;11328;53.928;18.522;2022-12-20T00:19:03;30.73;;;17.63;;
22320;SDS011;11328;53.928;18.522;2022-12-20T00:21:32;35.60;;;18.42;;
22320;SDS011;11328;53.928;18.522;2022-12-20T00:24:01;34.00;;;17.30;;
22320;SDS011;11328;53.928;18.522;2022-12-20T00:26:31;32.55;;;17.35;;
22320;SDS011;11328;53.928;18.522;2022-12-20T00:28:59;32.08;;;17.10;;
22320;SDS011;11328;53.928;18.522;2022-12-20T00:31:29;36.05;;;17.83;;
22320;SDS011;11328;53.928;18.522;2022-12-20T00:33:58;39.05;;;18.48;;
22320;SDS011;11328;53.928;18.522;2022-12-20T00:36:29;31.02;;;17.55;;
22320;SDS011;11328;53.928;18.522;2022-12-20T00:38:58;36.17;;;18.48;;
22320;SDS011;11328;53.928;18.522;2022-12-20T00:41:27;33.25;;;17.15;;
22320;SDS011;11328;53.928;18.522;2022-12-20T00:43:58;35.85;;;17.92;;
22320;SDS011;11328;53.928;18.522;2022-12-20T00:46:25;31.40;;;17.15;;
22320;SDS011;11328;53.928;18.522;2022-12-20T00:48:54;32.17;;;17.60;;
22320;SDS011;11328;53.928;18.522;2022-12-20T00:51:23;38.67;;;17.95;;
22320;SDS011;11328;53.928;18.522;2022-12-20T00:53:54;34.00;;;18.00;;
22320;SDS011;11328;53.928;18.522;2022-12-20T00:56:21;33.70;;;17.45;;
22320;SDS011;11328;53.928;18.522;2022-12-20T00:58:51;35.75;;;17.80;;
22320;SDS011;11328;53.928;18.522;2022-12-20T01:01:23;33.80;;;17.80;;
22320;SDS011;11328;53.928;18.522;2022-12-20T01:03:54;34.05;;;17.23;;
22320;SDS011;11328;53.928;18.522;2022-12-20T01:06:22;33.55;;;17.27;;
22320;SDS011;11328;53.928;18.522;2022-12-20T01:08:51;33.50;;;17.15;;
22320;SDS011;11328;53.928;18.522;2022-12-20T01:11:21;33.83;;;18.67;;
22320;SDS011;11328;53.928;18.522;2022-12-20T01:13:57;35.20;;;18.52;;
22320;SDS011;11328;53.928;18.522;2022-12-20T01:16:32;36.40;;;18.40;;
22320;SDS011;11328;53.928;18.522;2022-12-20T01:19:09;37.55;;;19.38;;
22320;SDS011;11328;53.928;18.522;2022-12-20T01:21:39;36.85;;;19.13;;
22320;SDS011;11328;53.928;18.522;2022-12-20T01:24:11;36.05;;;18.52;;
22320;SDS011;11328;53.928;18.522;2022-12-20T01:26:43;41.08;;;21.02;;
22320;SDS011;11328;53.928;18.522;2022-12-20T01:29:12;41.72;;;20.35;;
22320;SDS011;11328;53.928;18.522;2022-12-20T01:31:39;39.00;;;19.98;;
22320;SDS011;11328;53.928;18.522;2022-12-20T01:34:06;42.78;;;21.25;;
22320;SDS011;11328;53.928;18.522;2022-12-20T01:36:35;44.80;;;21.95;;
22320;SDS011;11328;53.928;18.522;2022-12-20T01:39:13;46.00;;;23.02;;
22320;SDS011;11328;53.928;18.522;2022-12-20T01:41:43;46.60;;;23.42;;
22320;SDS011;11328;53.928;18.522;2022-12-20T01:46:44;48.08;;;23.15;;
22320;SDS011;11328;53.928;18.522;2022-12-20T01:49:23;45.88;;;23.15;;
22320;SDS011;11328;53.928;18.522;2022-12-20T01:52:13;51.17;;;24.58;;
22320;SDS011;11328;53.928;18.522;2022-12-20T01:55:19;52.00;;;24.98;;
22320;SDS011;11328;53.928;18.522;2022-12-20T02:00:27;57.47;;;26.90;;
22320;SDS011;11328;53.928;18.522;2022-12-20T02:02:54;57.08;;;26.65;;
22320;SDS011;11328;53.928;18.522;2022-12-20T02:05:32;59.03;;;27.42;;
22320;SDS011;11328;53.928;18.522;2022-12-20T02:08:02;58.92;;;28.23;;
22320;SDS011;11328;53.928;18.522;2022-12-20T02:17:05;68.55;;;30.38;;
22320;SDS011;11328;53.928;18.522;2022-12-20T02:26:37;73.50;;;31.00;;
22320;SDS011;11328;53.928;18.522;2022-12-20T02:29:22;70.78;;;31.73;;
22320;SDS011;11328;53.928;18.522;2022-12-20T02:32:12;78.30;;;31.73;;
22320;SDS011;11328;53.928;18.522;2022-12-20T02:34:44;76.65;;;33.00;;
22320;SDS011;11328;53.928;18.522;2022-12-20T02:37:12;74.65;;;33.45;;
22320;SDS011;11328;53.928;18.522;2022-12-20T02:39:39;75.22;;;34.03;;
22320;SDS011;11328;53.928;18.522;2022-12-20T02:42:09;77.45;;;33.80;;
22320;SDS011;11328;53.928;18.522;2022-12-20T02:44:55;85.57;;;34.80;;
22320;SDS011;11328;53.928;18.522;2022-12-20T02:47:43;75.82;;;33.78;;
22320;SDS011;11328;53.928;18.522;2022-12-20T02:50:25;83.78;;;34.03;;
22320;SDS011;11328;53.928;18.522;2022-12-20T02:53:02;80.20;;;35.22;;
22320;SDS011;11328;53.928;18.522;2022-12-20T02:55:43;86.22;;;37.15;;
22320;SDS011;11328;53.928;18.522;2022-12-20T02:58:33;88.25;;;35.75;;
22320;SDS011;11328;53.928;18.522;2022-12-20T03:01:09;87.60;;;36.33;;
22320;SDS011;11328;53.928;18.522;2022-12-20T03:03:45;91.80;;;36.42;;
22320;SDS011;11328;53.928;18.522;2022-12-20T03:06:14;90.68;;;37.30;;
22320;SDS011;11328;53.928;18.522;2022-12-20T03:08:41;89.15;;;35.60;;
22320;SDS011;11328;53.928;18.522;2022-12-20T03:11:08;86.90;;;37.30;;
22320;SDS011;11328;53.928;18.522;2022-12-20T03:13:35;84.28;;;35.75;;
22320;SDS011;11328;53.928;18.522;2022-12-20T03:16:02;82.38;;;36.47;;
22320;SDS011;11328;53.928;18.522;2022-12-20T03:18:31;86.97;;;37.97;;
22320;SDS011;11328;53.928;18.522;2022-12-20T03:20:58;86.10;;;37.53;;
22320;SDS011;11328;53.928;18.522;2022-12-20T03:23:25;89.72;;;36.92;;
22320;SDS011;11328;53.928;18.522;2022-12-20T03:25:52;99.90;;;39.55;;
22320;SDS011;11328;53.928;18.522;2022-12-20T03:28:20;92.18;;;37.67;;
22320;SDS011;11328;53.928;18.522;2022-12-20T03:30:47;88.97;;;36.78;;
22320;SDS011;11328;53.928;18.522;2022-12-20T03:33:14;89.40;;;37.33;;
22320;SDS011;11328;53.928;18.522;2022-12-20T03:35:42;88.20;;;36.42;;
22320;SDS011;11328;53.928;18.522;2022-12-20T03:38:08;86.05;;;36.72;;
22320;SDS011;11328;53.928;18.522;2022-12-20T03:40:35;86.63;;;37.00;;
22320;SDS011;11328;53.928;18.522;2022-12-20T03:43:02;83.28;;;35.35;;
22320;SDS011;11328;53.928;18.522;2022-12-20T03:45:29;91.75;;;38.95;;
22320;SDS011;11328;53.928;18.522;2022-12-20T03:47:56;89.35;;;37.90;;
22320;SDS011;11328;53.928;18.522;2022-12-20T03:50:23;91.97;;;38.05;;
22320;SDS011;11328;53.928;18.522;2022-12-20T03:52:50;89.75;;;37.88;;
22320;SDS011;11328;53.928;18.522;2022-12-20T03:55:17;86.28;;;36.17;;
22320;SDS011;11328;53.928;18.522;2022-12-20T03:57:44;85.15;;;36.45;;
22320;SDS011;11328;53.928;18.522;2022-12-20T04:00:11;83.63;;;36.47;;
22320;SDS011;11328;53.928;18.522;2022-12-20T04:02:39;89.05;;;37.08;;
22320;SDS011;11328;53.928;18.522;2022-12-20T04:05:06;88.88;;;35.92;;
22320;SDS011;11328;53.928;18.522;2022-12-20T04:07:33;81.97;;;36.25;;
22320;SDS011;11328;53.928;18.522;2022-12-20T04:10:00;84.70;;;36.47;;
22320;SDS011;11328;53.928;18.522;2022-12-20T04:12:27;87.90;;;36.60;;
22320;SDS011;11328;53.928;18.522;2022-12-20T04:14:54;83.95;;;36.88;;
22320;SDS011;11328;53.928;18.522;2022-12-20T04:17:21;84.25;;;36.78;;
22320;SDS011;11328;53.928;18.522;2022-12-20T04:19:48;82.10;;;36.03;;
22320;SDS011;11328;53.928;18.522;2022-12-20T04:22:15;86.53;;;37.10;;
22320;SDS011;11328;53.928;18.522;2022-12-20T04:24:42;81.40;;;36.30;;
22320;SDS011;11328;53.928;18.522;2022-12-20T04:27:09;76.82;;;34.97;;
22320;SDS011;11328;53.928;18.522;2022-12-20T04:29:36;85.45;;;36.97;;
22320;SDS011;11328;53.928;18.522;2022-12-20T04:32:03;87.20;;;37.67;;
22320;SDS011;11328;53.928;18.522;2022-12-20T04:34:30;79.97;;;35.28;;
22320;SDS011;11328;53.928;18.522;2022-12-20T04:36:57;80.78;;;36.92;;
22320;SDS011;11328;53.928;18.522;2022-12-20T04:39:24;82.80;;;36.30;;
22320;SDS011;11328;53.928;18.522;2022-12-20T04:41:51;84.88;;;37.42;;
22320;SDS011;11328;53.928;18.522;2022-12-20T04:44:18;91.18;;;39.15;;
22320;SDS011;11328;53.928;18.522;2022-12-20T04:46:45;90.47;;;37.25;;
22320;SDS011;11328;53.928;18.522;2022-12-20T04:49:12;82.40;;;35.38;;
22320;SDS011;11328;53.928;18.522;2022-12-20T04:51:39;83.38;;;36.60;;
22320;SDS011;11328;53.928;18.522;2022-12-20T04:54:06;89.55;;;37.95;;
22320;SDS011;11328;53.928;18.522;2022-12-20T04:56:33;86.93;;;40.33;;
22320;SDS011;11328;53.928;18.522;2022-12-20T04:59:00;93.90;;;42.42;;
22320;SDS011;11328;53.928;18.522;2022-12-20T05:01:27;86.10;;;37.25;;
22320;SDS011;11328;53.928;18.522;2022-12-20T05:03:55;83.75;;;37.80;;
22320;SDS011;11328;53.928;18.522;2022-12-20T05:06:22;87.97;;;37.75;;
22320;SDS011;11328;53.928;18.522;2022-12-20T05:08:49;84.32;;;38.25;;
22320;SDS011;11328;53.928;18.522;2022-12-20T05:11:15;85.15;;;38.10;;
22320;SDS011;11328;53.928;18.522;2022-12-20T05:13:49;87.00;;;36.97;;
22320;SDS011;11328;53.928;18.522;2022-12-20T05:16:16;83.13;;;36.42;;
22320;SDS011;11328;53.928;18.522;2022-12-20T05:18:43;82.38;;;36.88;;
22320;SDS011;11328;53.928;18.522;2022-12-20T05:21:14;79.18;;;35.67;;
22320;SDS011;11328;53.928;18.522;2022-12-20T05:24:00;83.90;;;34.97;;
22320;SDS011;11328;53.928;18.522;2022-12-20T05:26:45;87.50;;;35.00;;
22320;SDS011;11328;53.928;18.522;2022-12-20T05:29:12;76.75;;;34.88;;
22320;SDS011;11328;53.928;18.522;2022-12-20T05:31:40;81.25;;;34.97;;
22320;SDS011;11328;53.928;18.522;2022-12-20T05:34:07;88.57;;;37.00;;
22320;SDS011;11328;53.928;18.522;2022-12-20T05:36:34;80.97;;;35.30;;
22320;SDS011;11328;53.928;18.522;2022-12-20T05:39:01;80.93;;;35.38;;
22320;SDS011;11328;53.928;18.522;2022-12-20T05:41:30;79.28;;;36.38;;
22320;SDS011;11328;53.928;18.522;2022-12-20T05:43:57;80.05;;;35.53;;
22320;SDS011;11328;53.928;18.522;2022-12-20T05:46:27;72.30;;;34.63;;
22320;SDS011;11328;53.928;18.522;2022-12-20T05:48:54;79.35;;;34.75;;
22320;SDS011;11328;53.928;18.522;2022-12-20T05:51:21;77.13;;;35.40;;
22320;SDS011;11328;53.928;18.522;2022-12-20T05:53:48;76.28;;;35.97;;
22320;SDS011;11328;53.928;18.522;2022-12-20T05:56:15;77.57;;;35.30;;
22320;SDS011;11328;53.928;18.522;2022-12-20T05:58:43;74.18;;;33.30;;
22320;SDS011;11328;53.928;18.522;2022-12-20T06:01:10;75.43;;;33.25;;
22320;SDS011;11328;53.928;18.522;2022-12-20T06:03:37;75.32;;;33.72;;
22320;SDS011;11328;53.928;18.522;2022-12-20T06:06:06;74.68;;;33.28;;
22320;SDS011;11328;53.928;18.522;2022-12-20T06:08:40;69.57;;;33.10;;
22320;SDS011;11328;53.928;18.522;2022-12-20T06:11:07;73.20;;;34.00;;
22320;SDS011;11328;53.928;18.522;2022-12-20T06:13:34;72.75;;;31.60;;
22320;SDS011;11328;53.928;18.522;2022-12-20T06:16:01;75.80;;;34.28;;
22320;SDS011;11328;53.928;18.522;2022-12-20T06:18:29;75.50;;;32.83;;
22320;SDS011;11328;53.928;18.522;2022-12-20T06:20:56;68.90;;;32.38;;
22320;SDS011;11328;53.928;18.522;2022-12-20T06:23:23;72.05;;;35.03;;
22320;SDS011;11328;53.928;18.522;2022-12-20T06:25:50;67.53;;;32.85;;
22320;SDS011;11328;53.928;18.522;2022-12-20T06:28:17;63.75;;;31.45;;
22320;SDS011;11328;53.928;18.522;2022-12-20T06:30:54;71.60;;;33.17;;
22320;SDS011;11328;53.928;18.522;2022-12-20T06:33:23;65.40;;;31.35;;
22320;SDS011;11328;53.928;18.522;2022-12-20T06:35:50;70.22;;;32.20;;
22320;SDS011;11328;53.928;18.522;2022-12-20T06:38:18;68.43;;;31.67;;
22320;SDS011;11328;53.928;18.522;2022-12-20T06:40:45;64.72;;;31.83;;
22320;SDS011;11328;53.928;18.522;2022-12-20T06:43:12;68.72;;;31.27;;
22320;SDS011;11328;53.928;18.522;2022-12-20T06:45:39;67.75;;;31.42;;
22320;SDS011;11328;53.928;18.522;2022-12-20T06:48:07;61.88;;;30.40;;
22320;SDS011;11328;53.928;18.522;2022-12-20T06:50:35;65.53;;;30.30;;
22320;SDS011;11328;53.928;18.522;2022-12-20T06:53:04;62.45;;;29.70;;
22320;SDS011;11328;53.928;18.522;2022-12-20T06:55:37;64.75;;;31.70;;
22320;SDS011;11328;53.928;18.522;2022-12-20T06:58:04;61.80;;;30.08;;
22320;SDS011;11328;53.928;18.522;2022-12-20T07:00:32;67.82;;;32.63;;
22320;SDS011;11328;53.928;18.522;2022-12-20T07:02:59;65.65;;;31.80;;
22320;SDS011;11328;53.928;18.522;2022-12-20T07:05:26;64.72;;;31.50;;
22320;SDS011;11328;53.928;18.522;2022-12-20T07:07:53;60.72;;;31.38;;
22320;SDS011;11328;53.928;18.522;2022-12-20T07:10:20;61.75;;;30.52;;
22320;SDS011;11328;53.928;18.522;2022-12-20T07:12:47;62.25;;;30.10;;
22320;SDS011;11328;53.928;18.522;2022-12-20T07:15:14;60.28;;;28.60;;
22320;SDS011;11328;53.928;18.522;2022-12-20T07:17:42;60.65;;;28.67;;
22320;SDS011;11328;53.928;18.522;2022-12-20T07:20:09;60.03;;;29.42;;
22320;SDS011;11328;53.928;18.522;2022-12-20T07:25:52;59.80;;;29.58;;
22320;SDS011;11328;53.928;18.522;2022-12-20T07:28:23;59.55;;;29.58;;
22320;SDS011;11328;53.928;18.522;2022-12-20T07:30:52;59.10;;;29.10;;
22320;SDS011;11328;53.928;18.522;2022-12-20T07:33:20;62.85;;;29.40;;
22320;SDS011;11328;53.928;18.522;2022-12-20T07:35:47;63.15;;;29.10;;
22320;SDS011;11328;53.928;18.522;2022-12-20T07:38:19;60.58;;;28.20;;
22320;SDS011;11328;53.928;18.522;2022-12-20T07:40:46;58.50;;;29.52;;
22320;SDS011;11328;53.928;18.522;2022-12-20T07:43:13;58.95;;;28.48;;
22320;SDS011;11328;53.928;18.522;2022-12-20T07:45:40;58.78;;;30.45;;
22320;SDS011;11328;53.928;18.522;2022-12-20T07:48:08;55.17;;;28.65;;
22320;SDS011;11328;53.928;18.522;2022-12-20T07:50:45;56.42;;;28.38;;
22320;SDS011;11328;53.928;18.522;2022-12-20T07:53:12;57.33;;;29.10;;
22320;SDS011;11328;53.928;18.522;2022-12-20T07:55:40;58.35;;;29.20;;
22320;SDS011;11328;53.928;18.522;2022-12-20T07:58:08;53.85;;;28.40;;
22320;SDS011;11328;53.928;18.522;2022-12-20T08:00:38;57.53;;;29.85;;
22320;SDS011;11328;53.928;18.522;2022-12-20T08:03:07;61.22;;;29.98;;
22320;SDS011;11328;53.928;18.522;2022-12-20T08:05:42;59.42;;;29.38;;
22320;SDS011;11328;53.928;18.522;2022-12-20T08:08:14;54.58;;;28.20;;
22320;SDS011;11328;53.928;18.522;2022-12-20T08:10:42;53.92;;;28.38;;
22320;SDS011;11328;53.928;18.522;2022-12-20T08:13:10;55.35;;;28.33;;
22320;SDS011;11328;53.928;18.522;2022-12-20T08:15:38;56.05;;;28.92;;
22320;SDS011;11328;53.928;18.522;2022-12-20T08:18:05;54.00;;;28.10;;
22320;SDS011;11328;53.928;18.522;2022-12-20T08:20:32;56.15;;;28.77;;
22320;SDS011;11328;53.928;18.522;2022-12-20T08:23:01;53.38;;;27.83;;
22320;SDS011;11328;53.928;18.522;2022-12-20T08:25:29;53.95;;;27.67;;
22320;SDS011;11328;53.928;18.522;2022-12-20T08:28:06;56.45;;;28.10;;
22320;SDS011;11328;53.928;18.522;2022-12-20T08:30:33;56.10;;;27.60;;
22320;SDS011;11328;53.928;18.522;2022-12-20T08:33:00;52.03;;;28.10;;
22320;SDS011;11328;53.928;18.522;2022-12-20T08:35:27;55.03;;;27.90;;
22320;SDS011;11328;53.928;18.522;2022-12-20T08:37:54;53.83;;;28.40;;
22320;SDS011;11328;53.928;18.522;2022-12-20T08:40:22;47.83;;;27.88;;
22320;SDS011;11328;53.928;18.522;2022-12-20T08:42:49;55.20;;;28.77;;
22320;SDS011;11328;53.928;18.522;2022-12-20T08:45:16;55.55;;;28.05;;
22320;SDS011;11328;53.928;18.522;2022-12-20T08:47:44;53.05;;;27.98;;
22320;SDS011;11328;53.928;18.522;2022-12-20T08:50:11;54.45;;;28.58;;
22320;SDS011;11328;53.928;18.522;2022-12-20T08:52:38;56.75;;;28.85;;
22320;SDS011;11328;53.928;18.522;2022-12-20T08:55:05;50.63;;;27.30;;
22320;SDS011;11328;53.928;18.522;2022-12-20T08:57:34;54.92;;;28.55;;
22320;SDS011;11328;53.928;18.522;2022-12-20T09:00:01;55.13;;;27.20;;
22320;SDS011;11328;53.928;18.522;2022-12-20T09:02:28;48.85;;;26.25;;
22320;SDS011;11328;53.928;18.522;2022-12-20T09:04:57;52.42;;;26.85;;
22320;SDS011;11328;53.928;18.522;2022-12-20T09:07:24;49.70;;;26.38;;
22320;SDS011;11328;53.928;18.522;2022-12-20T09:09:51;50.22;;;26.25;;
22320;SDS011;11328;53.928;18.522;2022-12-20T09:12:18;51.67;;;26.58;;
22320;SDS011;11328;53.928;18.522;2022-12-20T09:14:45;49.65;;;26.27;;
22320;SDS011;11328;53.928;18.522;2022-12-20T09:17:12;51.13;;;28.45;;
22320;SDS011;11328;53.928;18.522;2022-12-20T09:19:39;53.03;;;27.60;;
22320;SDS011;11328;53.928;18.522;2022-12-20T09:22:06;51.75;;;28.33;;
22320;SDS011;11328;53.928;18.522;2022-12-20T09:24:33;48.78;;;25.83;;
22320;SDS011;11328;53.928;18.522;2022-12-20T09:27:03;51.55;;;27.08;;
22320;SDS011;11328;53.928;18.522;2022-12-20T09:29:29;46.40;;;25.13;;
22320;SDS011;11328;53.928;18.522;2022-12-20T09:32:01;46.90;;;25.67;;
22320;SDS011;11328;53.928;18.522;2022-12-20T09:34:28;45.55;;;25.10;;
22320;SDS011;11328;53.928;18.522;2022-12-20T09:36:55;47.13;;;25.05;;
22320;SDS011;11328;53.928;18.522;2022-12-20T09:39:23;48.53;;;26.08;;
22320;SDS011;11328;53.928;18.522;2022-12-20T09:41:50;45.30;;;24.52;;
22320;SDS011;11328;53.928;18.522;2022-12-20T09:47:02;48.60;;;24.65;;
22320;SDS011;11328;53.928;18.522;2022-12-20T09:49:37;42.92;;;24.95;;
22320;SDS011;11328;53.928;18.522;2022-12-20T10:00:43;48.33;;;25.50;;
22320;SDS011;11328;53.928;18.522;2022-12-20T10:03:21;44.38;;;25.05;;
22320;SDS011;11328;53.928;18.522;2022-12-20T10:05:55;48.58;;;25.52;;
22320;SDS011;11328;53.928;18.522;2022-12-20T10:20:44;42.88;;;24.17;;
22320;SDS011;11328;53.928;18.522;2022-12-20T10:23:38;45.65;;;26.13;;
22320;SDS011;11328;53.928;18.522;2022-12-20T10:26:18;48.92;;;25.88;;
22320;SDS011;11328;53.928;18.522;2022-12-20T10:28:48;47.30;;;25.35;;
22320;SDS011;11328;53.928;18.522;2022-12-20T10:31:19;43.95;;;25.27;;
22320;SDS011;11328;53.928;18.522;2022-12-20T10:33:47;44.97;;;24.30;;
22320;SDS011;11328;53.928;18.522;2022-12-20T10:39:02;41.67;;;24.10;;
22320;SDS011;11328;53.928;18.522;2022-12-20T10:44:24;43.58;;;23.83;;
22320;SDS011;11328;53.928;18.522;2022-12-20T10:46:56;43.45;;;23.85;;
22320;SDS011;11328;53.928;18.522;2022-12-20T10:52:02;44.10;;;24.08;;
22320;SDS011;11328;53.928;18.522;2022-12-20T10:54:35;42.72;;;24.55;;
22320;SDS011;11328;53.928;18.522;2022-12-20T10:57:14;43.50;;;24.73;;
22320;SDS011;11328;53.928;18.522;2022-12-20T10:59:55;47.10;;;24.42;;
22320;SDS011;11328;53.928;18.522;2022-12-20T11:05:57;42.13;;;23.42;;
22320;SDS011;11328;53.928;18.522;2022-12-20T11:08:30;41.30;;;23.08;;
22320;SDS011;11328;53.928;18.522;2022-12-20T11:11:18;47.35;;;23.33;;
22320;SDS011;11328;53.928;18.522;2022-12-20T11:13:50;43.22;;;24.77;;
22320;SDS011;11328;53.928;18.522;2022-12-20T11:19:30;38.83;;;23.00;;
22320;SDS011;11328;53.928;18.522;2022-12-20T11:22:26;43.08;;;22.42;;
22320;SDS011;11328;53.928;18.522;2022-12-20T11:39:42;42.60;;;23.48;;
22320;SDS011;11328;53.928;18.522;2022-12-20T11:54:25;40.88;;;23.20;;
22320;SDS011;11328;53.928;18.522;2022-12-20T11:57:11;42.83;;;23.40;;
22320;SDS011;11328;53.928;18.522;2022-12-20T12:12:38;40.03;;;24.30;;
22320;SDS011;11328;53.928;18.522;2022-12-20T12:26:12;35.85;;;21.83;;
22320;SDS011;11328;53.928;18.522;2022-12-20T12:28:55;39.55;;;23.17;;
22320;SDS011;11328;53.928;18.522;2022-12-20T12:31:38;38.47;;;21.40;;
22320;SDS011;11328;53.928;18.522;2022-12-20T12:45:59;37.50;;;21.70;;
22320;SDS011;11328;53.928;18.522;2022-12-20T12:51:09;40.25;;;22.92;;
22320;SDS011;11328;53.928;18.522;2022-12-20T12:53:45;39.58;;;22.42;;
22320;SDS011;11328;53.928;18.522;2022-12-20T13:04:29;41.38;;;23.48;;
22320;SDS011;11328;53.928;18.522;2022-12-20T13:10:00;41.38;;;23.48;;
22320;SDS011;11328;53.928;18.522;2022-12-20T13:12:55;39.17;;;22.50;;
22320;SDS011;11328;53.928;18.522;2022-12-20T13:17:56;41.17;;;23.92;;
22320;SDS011;11328;53.928;18.522;2022-12-20T13:20:36;42.88;;;23.25;;
22320;SDS011;11328;53.928;18.522;2022-12-20T13:25:39;43.20;;;22.85;;
22320;SDS011;11328;53.928;18.522;2022-12-20T13:31:33;41.00;;;23.10;;
22320;SDS011;11328;53.928;18.522;2022-12-20T13:33:39;42.53;;;23.80;;
22320;SDS011;11328;53.928;18.522;2022-12-20T13:44:07;39.85;;;23.30;;
22320;SDS011;11328;53.928;18.522;2022-12-20T13:49:42;40.70;;;22.95;;
22320;SDS011;11328;53.928;18.522;2022-12-20T13:54:43;39.47;;;23.98;;
22320;SDS011;11328;53.928;18.522;2022-12-20T13:58:02;43.67;;;23.63;;
22320;SDS011;11328;53.928;18.522;2022-12-20T14:00:23;42.92;;;24.30;;
22320;SDS011;11328;53.928;18.522;2022-12-20T14:02:52;40.90;;;23.40;;
22320;SDS011;11328;53.928;18.522;2022-12-20T14:05:21;40.92;;;23.85;;
22320;SDS011;11328;53.928;18.522;2022-12-20T14:07:58;40.08;;;23.30;;
22320;SDS011;11328;53.928;18.522;2022-12-20T14:10:31;39.80;;;23.02;;
22320;SDS011;11328;53.928;18.522;2022-12-20T14:13:00;39.75;;;23.23;;
22320;SDS011;11328;53.928;18.522;2022-12-20T14:15:31;43.38;;;23.95;;
22320;SDS011;11328;53.928;18.522;2022-12-20T14:18:04;40.47;;;23.85;;
22320;SDS011;11328;53.928;18.522;2022-12-20T14:21:02;42.17;;;23.23;;
22320;SDS011;11328;53.928;18.522;2022-12-20T14:23:40;43.58;;;25.90;;
22320;SDS011;11328;53.928;18.522;2022-12-20T14:26:17;43.63;;;24.95;;
22320;SDS011;11328;53.928;18.522;2022-12-20T14:28:58;45.65;;;25.73;;
22320;SDS011;11328;53.928;18.522;2022-12-20T14:31:48;45.40;;;25.77;;
22320;SDS011;11328;53.928;18.522;2022-12-20T14:34:17;42.95;;;25.55;;
22320;SDS011;11328;53.928;18.522;2022-12-20T14:42:34;44.13;;;25.33;;
22320;SDS011;11328;53.928;18.522;2022-12-20T14:45:14;44.78;;;25.52;;
22320;SDS011;11328;53.928;18.522;2022-12-20T14:50:38;47.17;;;26.80;;
22320;SDS011;11328;53.928;18.522;2022-12-20T14:53:16;45.10;;;26.10;;
22320;SDS011;11328;53.928;18.522;2022-12-20T14:55:52;47.92;;;26.13;;
22320;SDS011;11328;53.928;18.522;2022-12-20T15:03:48;50.05;;;28.38;;
22320;SDS011;11328;53.928;18.522;2022-12-20T15:09:09;51.05;;;28.60;;
22320;SDS011;11328;53.928;18.522;2022-12-20T15:11:36;44.35;;;26.17;;
22320;SDS011;11328;53.928;18.522;2022-12-20T15:17:11;45.65;;;25.25;;
22320;SDS011;11328;53.928;18.522;2022-12-20T15:19:41;44.13;;;25.75;;
22320;SDS011;11328;53.928;18.522;2022-12-20T15:22:12;50.10;;;27.38;;
22320;SDS011;11328;53.928;18.522;2022-12-20T15:24:43;44.90;;;25.27;;
22320;SDS011;11328;53.928;18.522;2022-12-20T15:27:13;46.63;;;26.33;;
22320;SDS011;11328;53.928;18.522;2022-12-20T15:29:41;47.58;;;26.98;;
22320;SDS011;11328;53.928;18.522;2022-12-20T15:32:16;46.08;;;26.25;;
22320;SDS011;11328;53.928;18.522;2022-12-20T15:34:54;45.42;;;26.20;;
22320;SDS011;11328;53.928;18.522;2022-12-20T15:37:22;44.28;;;25.63;;
22320;SDS011;11328;53.928;18.522;2022-12-20T15:39:49;48.30;;;25.90;;
22320;SDS011;11328;53.928;18.522;2022-12-20T15:42:16;48.33;;;25.73;;
22320;SDS011;11328;53.928;18.522;2022-12-20T15:44:46;46.72;;;26.27;;
22320;SDS011;11328;53.928;18.522;2022-12-20T15:47:13;47.83;;;26.75;;
22320;SDS011;11328;53.928;18.522;2022-12-20T15:49:42;49.78;;;26.98;;
22320;SDS011;11328;53.928;18.522;2022-12-20T15:52:19;50.95;;;29.02;;
22320;SDS011;11328;53.928;18.522;2022-12-20T15:54:48;51.22;;;28.48;;
22320;SDS011;11328;53.928;18.522;2022-12-20T15:57:16;50.08;;;28.98;;
22320;SDS011;11328;53.928;18.522;2022-12-20T15:59:43;52.70;;;28.08;;
22320;SDS011;11328;53.928;18.522;2022-12-20T16:02:28;55.20;;;28.50;;
22320;SDS011;11328;53.928;18.522;2022-12-20T16:04:58;60.17;;;33.95;;
22320;SDS011;11328;53.928;18.522;2022-12-20T16:07:25;50.75;;;30.55;;
22320;SDS011;11328;53.928;18.522;2022-12-20T16:09:53;48.67;;;28.58;;
22320;SDS011;11328;53.928;18.522;2022-12-20T16:12:22;51.58;;;27.75;;
22320;SDS011;11328;53.928;18.522;2022-12-20T16:14:59;54.55;;;28.15;;
22320;SDS011;11328;53.928;18.522;2022-12-20T16:17:27;53.38;;;29.45;;
22320;SDS011;11328;53.928;18.522;2022-12-20T16:19:54;69.18;;;42.20;;
22320;SDS011;11328;53.928;18.522;2022-12-20T16:22:22;63.00;;;39.78;;
22320;SDS011;11328;53.928;18.522;2022-12-20T16:24:50;61.58;;;34.95;;
22320;SDS011;11328;53.928;18.522;2022-12-20T16:27:17;61.35;;;34.08;;
22320;SDS011;11328;53.928;18.522;2022-12-20T16:29:45;56.28;;;30.20;;
22320;SDS011;11328;53.928;18.522;2022-12-20T16:32:16;53.72;;;30.20;;
22320;SDS011;11328;53.928;18.522;2022-12-20T16:34:50;53.05;;;29.55;;
22320;SDS011;11328;53.928;18.522;2022-12-20T16:37:17;53.88;;;29.02;;
22320;SDS011;11328;53.928;18.522;2022-12-20T16:39:44;54.28;;;29.65;;
22320;SDS011;11328;53.928;18.522;2022-12-20T16:42:15;58.08;;;29.95;;
22320;SDS011;11328;53.928;18.522;2022-12-20T16:44:51;67.97;;;41.50;;
22320;SDS011;11328;53.928;18.522;2022-12-20T16:47:19;63.95;;;35.85;;
22320;SDS011;11328;53.928;18.522;2022-12-20T16:49:47;61.17;;;33.53;;
22320;SDS011;11328;53.928;18.522;2022-12-20T16:52:18;53.50;;;30.13;;
22320;SDS011;11328;53.928;18.522;2022-12-20T16:54:47;56.05;;;30.98;;
22320;SDS011;11328;53.928;18.522;2022-12-20T16:57:15;61.20;;;36.33;;
22320;SDS011;11328;53.928;18.522;2022-12-20T16:59:42;56.53;;;31.73;;
22320;SDS011;11328;53.928;18.522;2022-12-20T17:02:43;55.28;;;31.58;;
22320;SDS011;11328;53.928;18.522;2022-12-20T17:05:03;60.63;;;32.63;;
22320;SDS011;11328;53.928;18.522;2022-12-20T17:07:31;58.10;;;30.92;;
22320;SDS011;11328;53.928;18.522;2022-12-20T17:10:06;59.25;;;32.08;;
22320;SDS011;11328;53.928;18.522;2022-12-20T17:12:35;56.83;;;32.50;;
22320;SDS011;11328;53.928;18.522;2022-12-20T17:15:02;66.55;;;37.65;;
22320;SDS011;11328;53.928;18.522;2022-12-20T17:17:30;64.25;;;35.20;;
22320;SDS011;11328;53.928;18.522;2022-12-20T17:19:57;62.80;;;35.33;;
22320;SDS011;11328;53.928;18.522;2022-12-20T17:22:25;62.08;;;35.40;;
22320;SDS011;11328;53.928;18.522;2022-12-20T17:24:52;63.03;;;35.55;;
22320;SDS011;11328;53.928;18.522;2022-12-20T17:27:19;60.08;;;34.65;;